Schedule Details


Flight Number: CTN481
Departure: Kastrup (EKCH) at 11:20
Arrival: Franjo Tudman (LDZA) at 13:25
Route: BALOX?M736?SALLO?UM44?KOGIM?UM725?HDO?M725?VOZ?Z21?PISAM?DCT?PUBEG?DCT?PETOV

Weather Information
EKCH 092150Z AUTO 29004KT 9999 NCD 05/M00 Q1025 NOSIG
LDZA 092200Z 24003KT CAVOK 06/M01 Q1022 NOSIG
Schedule Frequency

Route Map